sensor_id;sensor_type;location;lat;lon;timestamp;P1;durP1;ratioP1;P2;durP2;ratioP2
54705;SDS011;40603;48.774;8.916;2023-11-19T00:00:15;2.50;;;1.80;;
54705;SDS011;40603;48.774;8.916;2023-11-19T00:02:40;3.55;;;1.70;;
54705;SDS011;40603;48.774;8.916;2023-11-19T00:05:07;5.22;;;2.08;;
54705;SDS011;40603;48.774;8.916;2023-11-19T00:07:34;2.63;;;2.15;;
54705;SDS011;40603;48.774;8.916;2023-11-19T00:10:06;2.67;;;1.98;;
54705;SDS011;40603;48.774;8.916;2023-11-19T00:12:38;3.45;;;2.08;;
54705;SDS011;40603;48.774;8.916;2023-11-19T00:15:05;2.78;;;2.00;;
54705;SDS011;40603;48.774;8.916;2023-11-19T00:17:31;2.63;;;1.88;;
54705;SDS011;40603;48.774;8.916;2023-11-19T00:19:57;3.40;;;2.15;;
54705;SDS011;40603;48.774;8.916;2023-11-19T00:22:22;2.00;;;1.80;;
54705;SDS011;40603;48.774;8.916;2023-11-19T00:24:48;1.25;;;1.02;;
54705;SDS011;40603;48.774;8.916;2023-11-19T00:27:13;0.60;;;0.60;;
54705;SDS011;40603;48.774;8.916;2023-11-19T00:29:38;0.95;;;0.80;;
54705;SDS011;40603;48.774;8.916;2023-11-19T00:32:04;0.52;;;0.50;;
54705;SDS011;40603;48.774;8.916;2023-11-19T00:34:30;0.40;;;0.40;;
54705;SDS011;40603;48.774;8.916;2023-11-19T00:36:56;0.73;;;0.40;;
54705;SDS011;40603;48.774;8.916;2023-11-19T00:39:21;0.93;;;0.40;;
54705;SDS011;40603;48.774;8.916;2023-11-19T00:41:46;0.30;;;0.30;;
54705;SDS011;40603;48.774;8.916;2023-11-19T00:44:11;0.57;;;0.40;;
54705;SDS011;40603;48.774;8.916;2023-11-19T00:46:37;2.08;;;0.30;;
54705;SDS011;40603;48.774;8.916;2023-11-19T00:49:02;0.10;;;0.10;;
54705;SDS011;40603;48.774;8.916;2023-11-19T00:51:27;0.82;;;0.30;;
54705;SDS011;40603;48.774;8.916;2023-11-19T00:53:53;0.57;;;0.28;;
54705;SDS011;40603;48.774;8.916;2023-11-19T00:56:18;0.20;;;0.20;;
54705;SDS011;40603;48.774;8.916;2023-11-19T00:58:44;0.68;;;0.30;;
54705;SDS011;40603;48.774;8.916;2023-11-19T01:01:11;1.10;;;0.20;;
54705;SDS011;40603;48.774;8.916;2023-11-19T01:03:36;0.25;;;0.25;;
54705;SDS011;40603;48.774;8.916;2023-11-19T01:06:02;1.13;;;0.25;;
54705;SDS011;40603;48.774;8.916;2023-11-19T01:08:27;0.28;;;0.28;;
54705;SDS011;40603;48.774;8.916;2023-11-19T01:10:53;1.55;;;0.17;;
54705;SDS011;40603;48.774;8.916;2023-11-19T01:13:18;0.20;;;0.20;;
54705;SDS011;40603;48.774;8.916;2023-11-19T01:15:43;0.20;;;0.20;;
54705;SDS011;40603;48.774;8.916;2023-11-19T01:18:09;0.20;;;0.20;;
54705;SDS011;40603;48.774;8.916;2023-11-19T01:20:34;0.10;;;0.10;;
54705;SDS011;40603;48.774;8.916;2023-11-19T01:23:00;1.30;;;0.68;;
54705;SDS011;40603;48.774;8.916;2023-11-19T01:25:25;0.55;;;0.30;;
54705;SDS011;40603;48.774;8.916;2023-11-19T01:27:50;0.70;;;0.30;;
54705;SDS011;40603;48.774;8.916;2023-11-19T01:30:15;0.20;;;0.20;;
54705;SDS011;40603;48.774;8.916;2023-11-19T01:32:41;0.20;;;0.20;;
54705;SDS011;40603;48.774;8.916;2023-11-19T01:35:06;0.22;;;0.20;;
54705;SDS011;40603;48.774;8.916;2023-11-19T01:37:33;0.20;;;0.20;;
54705;SDS011;40603;48.774;8.916;2023-11-19T01:39:59;0.32;;;0.32;;
54705;SDS011;40603;48.774;8.916;2023-11-19T01:42:25;1.13;;;0.70;;
54705;SDS011;40603;48.774;8.916;2023-11-19T01:45:00;0.70;;;0.50;;
54705;SDS011;40603;48.774;8.916;2023-11-19T01:47:26;0.70;;;0.32;;
54705;SDS011;40603;48.774;8.916;2023-11-19T01:49:52;0.45;;;0.20;;
54705;SDS011;40603;48.774;8.916;2023-11-19T01:52:18;0.55;;;0.30;;
54705;SDS011;40603;48.774;8.916;2023-11-19T01:54:43;0.10;;;0.10;;
54705;SDS011;40603;48.774;8.916;2023-11-19T01:57:10;0.35;;;0.28;;
54705;SDS011;40603;48.774;8.916;2023-11-19T01:59:35;0.65;;;0.20;;
54705;SDS011;40603;48.774;8.916;2023-11-19T02:02:01;0.20;;;0.15;;
54705;SDS011;40603;48.774;8.916;2023-11-19T02:04:26;2.10;;;0.50;;
54705;SDS011;40603;48.774;8.916;2023-11-19T02:06:53;1.70;;;1.30;;
54705;SDS011;40603;48.774;8.916;2023-11-19T02:09:19;3.83;;;1.95;;
54705;SDS011;40603;48.774;8.916;2023-11-19T02:11:44;1.92;;;0.98;;
54705;SDS011;40603;48.774;8.916;2023-11-19T02:14:14;0.65;;;0.45;;
54705;SDS011;40603;48.774;8.916;2023-11-19T02:16:39;2.00;;;1.00;;
54705;SDS011;40603;48.774;8.916;2023-11-19T02:19:04;0.95;;;0.50;;
54705;SDS011;40603;48.774;8.916;2023-11-19T02:21:31;0.20;;;0.20;;
54705;SDS011;40603;48.774;8.916;2023-11-19T02:23:56;1.67;;;0.40;;
54705;SDS011;40603;48.774;8.916;2023-11-19T02:26:25;0.93;;;0.75;;
54705;SDS011;40603;48.774;8.916;2023-11-19T02:28:54;0.47;;;0.40;;
54705;SDS011;40603;48.774;8.916;2023-11-19T02:31:19;0.65;;;0.20;;
54705;SDS011;40603;48.774;8.916;2023-11-19T02:33:45;0.20;;;0.20;;
54705;SDS011;40603;48.774;8.916;2023-11-19T02:36:10;0.98;;;0.20;;
54705;SDS011;40603;48.774;8.916;2023-11-19T02:38:36;0.45;;;0.20;;
54705;SDS011;40603;48.774;8.916;2023-11-19T02:41:06;0.43;;;0.20;;
54705;SDS011;40603;48.774;8.916;2023-11-19T02:43:32;1.50;;;0.40;;
54705;SDS011;40603;48.774;8.916;2023-11-19T02:45:59;0.50;;;0.30;;
54705;SDS011;40603;48.774;8.916;2023-11-19T02:48:26;0.43;;;0.20;;
54705;SDS011;40603;48.774;8.916;2023-11-19T02:50:51;0.38;;;0.20;;
54705;SDS011;40603;48.774;8.916;2023-11-19T02:53:17;0.47;;;0.35;;
54705;SDS011;40603;48.774;8.916;2023-11-19T02:55:42;0.43;;;0.20;;
54705;SDS011;40603;48.774;8.916;2023-11-19T02:58:13;0.20;;;0.20;;
54705;SDS011;40603;48.774;8.916;2023-11-19T03:00:45;0.70;;;0.20;;
54705;SDS011;40603;48.774;8.916;2023-11-19T03:03:19;0.40;;;0.20;;
54705;SDS011;40603;48.774;8.916;2023-11-19T03:05:47;1.98;;;0.25;;
54705;SDS011;40603;48.774;8.916;2023-11-19T03:08:13;0.25;;;0.20;;
54705;SDS011;40603;48.774;8.916;2023-11-19T03:10:39;0.47;;;0.20;;
54705;SDS011;40603;48.774;8.916;2023-11-19T03:13:04;0.30;;;0.15;;
54705;SDS011;40603;48.774;8.916;2023-11-19T03:15:29;0.20;;;0.20;;
54705;SDS011;40603;48.774;8.916;2023-11-19T03:17:55;1.27;;;0.20;;
54705;SDS011;40603;48.774;8.916;2023-11-19T03:20:20;0.55;;;0.20;;
54705;SDS011;40603;48.774;8.916;2023-11-19T03:22:46;0.10;;;0.10;;
54705;SDS011;40603;48.774;8.916;2023-11-19T03:25:11;0.52;;;0.20;;
54705;SDS011;40603;48.774;8.916;2023-11-19T03:27:37;0.20;;;0.20;;
54705;SDS011;40603;48.774;8.916;2023-11-19T03:30:04;0.30;;;0.20;;
54705;SDS011;40603;48.774;8.916;2023-11-19T03:32:31;0.73;;;0.30;;
54705;SDS011;40603;48.774;8.916;2023-11-19T03:34:57;0.03;;;0.03;;
54705;SDS011;40603;48.774;8.916;2023-11-19T03:37:22;0.20;;;0.20;;
54705;SDS011;40603;48.774;8.916;2023-11-19T03:39:48;0.10;;;0.10;;
54705;SDS011;40603;48.774;8.916;2023-11-19T03:42:14;0.65;;;0.20;;
54705;SDS011;40603;48.774;8.916;2023-11-19T03:44:39;0.35;;;0.17;;
54705;SDS011;40603;48.774;8.916;2023-11-19T03:47:04;0.93;;;0.40;;
54705;SDS011;40603;48.774;8.916;2023-11-19T03:49:30;1.98;;;0.20;;
54705;SDS011;40603;48.774;8.916;2023-11-19T03:51:55;0.20;;;0.20;;
54705;SDS011;40603;48.774;8.916;2023-11-19T03:54:20;0.35;;;0.20;;
54705;SDS011;40603;48.774;8.916;2023-11-19T03:56:48;3.63;;;0.20;;
54705;SDS011;40603;48.774;8.916;2023-11-19T03:59:13;0.10;;;0.10;;
54705;SDS011;40603;48.774;8.916;2023-11-19T04:01:40;0.00;;;0.00;;
54705;SDS011;40603;48.774;8.916;2023-11-19T04:04:05;0.10;;;0.10;;
54705;SDS011;40603;48.774;8.916;2023-11-19T04:06:31;0.75;;;0.10;;
54705;SDS011;40603;48.774;8.916;2023-11-19T04:08:56;0.20;;;0.20;;
54705;SDS011;40603;48.774;8.916;2023-11-19T04:11:22;2.15;;;0.20;;
54705;SDS011;40603;48.774;8.916;2023-11-19T04:13:47;0.38;;;0.10;;
54705;SDS011;40603;48.774;8.916;2023-11-19T04:16:12;0.85;;;0.10;;
54705;SDS011;40603;48.774;8.916;2023-11-19T04:18:37;0.15;;;0.10;;
54705;SDS011;40603;48.774;8.916;2023-11-19T04:21:05;0.95;;;0.20;;
54705;SDS011;40603;48.774;8.916;2023-11-19T04:23:31;1.17;;;0.10;;
54705;SDS011;40603;48.774;8.916;2023-11-19T04:25:56;1.05;;;0.10;;
54705;SDS011;40603;48.774;8.916;2023-11-19T04:28:22;0.10;;;0.10;;
54705;SDS011;40603;48.774;8.916;2023-11-19T04:30:47;0.20;;;0.20;;
54705;SDS011;40603;48.774;8.916;2023-11-19T04:33:12;0.20;;;0.20;;
54705;SDS011;40603;48.774;8.916;2023-11-19T04:35:37;0.20;;;0.20;;
54705;SDS011;40603;48.774;8.916;2023-11-19T04:38:03;1.13;;;0.17;;
54705;SDS011;40603;48.774;8.916;2023-11-19T04:40:28;0.20;;;0.20;;
54705;SDS011;40603;48.774;8.916;2023-11-19T04:42:53;0.13;;;0.13;;
54705;SDS011;40603;48.774;8.916;2023-11-19T04:45:19;0.20;;;0.20;;
54705;SDS011;40603;48.774;8.916;2023-11-19T04:47:45;0.28;;;0.10;;
54705;SDS011;40603;48.774;8.916;2023-11-19T04:50:10;0.88;;;0.22;;
54705;SDS011;40603;48.774;8.916;2023-11-19T04:52:39;11.45;;;0.28;;
54705;SDS011;40603;48.774;8.916;2023-11-19T04:55:10;0.85;;;0.20;;
54705;SDS011;40603;48.774;8.916;2023-11-19T04:57:36;0.10;;;0.10;;
54705;SDS011;40603;48.774;8.916;2023-11-19T05:00:02;1.10;;;0.10;;
54705;SDS011;40603;48.774;8.916;2023-11-19T05:02:29;0.10;;;0.10;;
54705;SDS011;40603;48.774;8.916;2023-11-19T05:04:55;0.13;;;0.13;;
54705;SDS011;40603;48.774;8.916;2023-11-19T05:07:20;0.13;;;0.13;;
54705;SDS011;40603;48.774;8.916;2023-11-19T05:09:45;0.15;;;0.15;;
54705;SDS011;40603;48.774;8.916;2023-11-19T05:12:11;0.20;;;0.10;;
54705;SDS011;40603;48.774;8.916;2023-11-19T05:14:37;0.35;;;0.10;;
54705;SDS011;40603;48.774;8.916;2023-11-19T05:17:03;0.10;;;0.10;;
54705;SDS011;40603;48.774;8.916;2023-11-19T05:19:28;0.13;;;0.13;;
54705;SDS011;40603;48.774;8.916;2023-11-19T05:21:53;0.47;;;0.47;;
54705;SDS011;40603;48.774;8.916;2023-11-19T05:24:19;0.57;;;0.25;;
54705;SDS011;40603;48.774;8.916;2023-11-19T05:26:44;0.63;;;0.20;;
54705;SDS011;40603;48.774;8.916;2023-11-19T05:29:09;0.22;;;0.20;;
54705;SDS011;40603;48.774;8.916;2023-11-19T05:31:35;0.15;;;0.15;;
54705;SDS011;40603;48.774;8.916;2023-11-19T05:34:00;0.10;;;0.10;;
54705;SDS011;40603;48.774;8.916;2023-11-19T05:36:25;0.30;;;0.30;;
54705;SDS011;40603;48.774;8.916;2023-11-19T05:38:50;0.38;;;0.20;;
54705;SDS011;40603;48.774;8.916;2023-11-19T05:41:16;0.85;;;0.20;;
54705;SDS011;40603;48.774;8.916;2023-11-19T05:43:41;0.45;;;0.20;;
54705;SDS011;40603;48.774;8.916;2023-11-19T05:46:07;0.32;;;0.30;;
54705;SDS011;40603;48.774;8.916;2023-11-19T05:48:33;1.55;;;0.30;;
54705;SDS011;40603;48.774;8.916;2023-11-19T05:50:59;0.88;;;0.30;;
54705;SDS011;40603;48.774;8.916;2023-11-19T05:53:25;0.20;;;0.20;;
54705;SDS011;40603;48.774;8.916;2023-11-19T05:55:50;0.20;;;0.20;;
54705;SDS011;40603;48.774;8.916;2023-11-19T05:58:22;1.50;;;0.30;;
54705;SDS011;40603;48.774;8.916;2023-11-19T06:00:48;0.40;;;0.30;;
54705;SDS011;40603;48.774;8.916;2023-11-19T06:03:15;0.30;;;0.28;;
54705;SDS011;40603;48.774;8.916;2023-11-19T06:05:40;0.50;;;0.20;;
54705;SDS011;40603;48.774;8.916;2023-11-19T06:08:06;0.30;;;0.30;;
54705;SDS011;40603;48.774;8.916;2023-11-19T06:10:31;0.70;;;0.30;;
54705;SDS011;40603;48.774;8.916;2023-11-19T06:12:57;1.95;;;0.47;;
54705;SDS011;40603;48.774;8.916;2023-11-19T06:15:29;0.17;;;0.17;;
54705;SDS011;40603;48.774;8.916;2023-11-19T06:17:55;1.85;;;0.40;;
54705;SDS011;40603;48.774;8.916;2023-11-19T06:20:20;0.85;;;0.38;;
54705;SDS011;40603;48.774;8.916;2023-11-19T06:22:45;0.20;;;0.20;;
54705;SDS011;40603;48.774;8.916;2023-11-19T06:25:11;0.20;;;0.20;;
54705;SDS011;40603;48.774;8.916;2023-11-19T06:27:39;0.25;;;0.25;;
54705;SDS011;40603;48.774;8.916;2023-11-19T06:30:05;1.45;;;0.63;;
54705;SDS011;40603;48.774;8.916;2023-11-19T06:32:31;0.43;;;0.30;;
54705;SDS011;40603;48.774;8.916;2023-11-19T06:34:57;1.38;;;0.25;;
54705;SDS011;40603;48.774;8.916;2023-11-19T06:37:22;0.50;;;0.38;;
54705;SDS011;40603;48.774;8.916;2023-11-19T06:39:48;0.90;;;0.35;;
54705;SDS011;40603;48.774;8.916;2023-11-19T06:42:13;0.50;;;0.30;;
54705;SDS011;40603;48.774;8.916;2023-11-19T06:44:39;0.85;;;0.30;;
54705;SDS011;40603;48.774;8.916;2023-11-19T06:47:04;0.22;;;0.20;;
54705;SDS011;40603;48.774;8.916;2023-11-19T06:49:30;2.83;;;0.30;;
54705;SDS011;40603;48.774;8.916;2023-11-19T06:51:55;0.30;;;0.30;;
54705;SDS011;40603;48.774;8.916;2023-11-19T06:54:20;1.27;;;0.40;;
54705;SDS011;40603;48.774;8.916;2023-11-19T06:56:46;0.30;;;0.30;;
54705;SDS011;40603;48.774;8.916;2023-11-19T06:59:11;0.47;;;0.30;;
54705;SDS011;40603;48.774;8.916;2023-11-19T07:01:36;0.57;;;0.30;;
54705;SDS011;40603;48.774;8.916;2023-11-19T07:04:02;0.60;;;0.20;;
54705;SDS011;40603;48.774;8.916;2023-11-19T07:06:33;0.43;;;0.40;;
54705;SDS011;40603;48.774;8.916;2023-11-19T07:08:59;0.43;;;0.32;;
54705;SDS011;40603;48.774;8.916;2023-11-19T07:11:25;1.95;;;0.40;;
54705;SDS011;40603;48.774;8.916;2023-11-19T07:13:50;0.32;;;0.20;;
54705;SDS011;40603;48.774;8.916;2023-11-19T07:16:15;0.22;;;0.22;;
54705;SDS011;40603;48.774;8.916;2023-11-19T07:18:40;0.20;;;0.20;;
54705;SDS011;40603;48.774;8.916;2023-11-19T07:21:08;0.50;;;0.20;;
54705;SDS011;40603;48.774;8.916;2023-11-19T07:23:35;0.38;;;0.25;;
54705;SDS011;40603;48.774;8.916;2023-11-19T07:26:00;0.30;;;0.30;;
54705;SDS011;40603;48.774;8.916;2023-11-19T07:28:26;0.22;;;0.22;;
54705;SDS011;40603;48.774;8.916;2023-11-19T07:30:53;0.70;;;0.28;;
54705;SDS011;40603;48.774;8.916;2023-11-19T07:33:21;0.43;;;0.30;;
54705;SDS011;40603;48.774;8.916;2023-11-19T07:35:46;2.25;;;0.20;;
54705;SDS011;40603;48.774;8.916;2023-11-19T07:38:11;0.20;;;0.20;;
54705;SDS011;40603;48.774;8.916;2023-11-19T07:40:36;2.83;;;0.30;;
54705;SDS011;40603;48.774;8.916;2023-11-19T07:43:02;0.85;;;0.30;;
54705;SDS011;40603;48.774;8.916;2023-11-19T07:45:27;2.42;;;0.45;;
54705;SDS011;40603;48.774;8.916;2023-11-19T07:47:52;1.17;;;0.40;;
54705;SDS011;40603;48.774;8.916;2023-11-19T07:50:18;2.40;;;0.30;;
54705;SDS011;40603;48.774;8.916;2023-11-19T07:52:45;0.20;;;0.20;;
54705;SDS011;40603;48.774;8.916;2023-11-19T07:55:10;0.45;;;0.30;;
54705;SDS011;40603;48.774;8.916;2023-11-19T07:57:35;1.00;;;0.57;;
54705;SDS011;40603;48.774;8.916;2023-11-19T08:00:01;0.32;;;0.30;;
54705;SDS011;40603;48.774;8.916;2023-11-19T08:02:28;0.47;;;0.30;;
54705;SDS011;40603;48.774;8.916;2023-11-19T08:04:53;0.30;;;0.30;;
54705;SDS011;40603;48.774;8.916;2023-11-19T08:07:20;0.65;;;0.30;;
54705;SDS011;40603;48.774;8.916;2023-11-19T08:09:45;0.85;;;0.30;;
54705;SDS011;40603;48.774;8.916;2023-11-19T08:12:11;0.43;;;0.35;;
54705;SDS011;40603;48.774;8.916;2023-11-19T08:14:39;0.55;;;0.35;;
54705;SDS011;40603;48.774;8.916;2023-11-19T08:17:04;0.90;;;0.50;;
54705;SDS011;40603;48.774;8.916;2023-11-19T08:19:29;1.35;;;0.40;;
54705;SDS011;40603;48.774;8.916;2023-11-19T08:21:54;1.40;;;0.30;;
54705;SDS011;40603;48.774;8.916;2023-11-19T08:24:20;1.17;;;0.57;;
54705;SDS011;40603;48.774;8.916;2023-11-19T08:26:45;0.28;;;0.20;;
54705;SDS011;40603;48.774;8.916;2023-11-19T08:29:10;0.20;;;0.20;;
54705;SDS011;40603;48.774;8.916;2023-11-19T08:31:36;0.20;;;0.20;;
54705;SDS011;40603;48.774;8.916;2023-11-19T08:34:01;0.30;;;0.30;;
54705;SDS011;40603;48.774;8.916;2023-11-19T08:36:26;0.82;;;0.40;;
54705;SDS011;40603;48.774;8.916;2023-11-19T08:38:53;2.17;;;0.50;;
54705;SDS011;40603;48.774;8.916;2023-11-19T08:41:18;0.55;;;0.40;;
54705;SDS011;40603;48.774;8.916;2023-11-19T08:43:44;1.27;;;0.32;;
54705;SDS011;40603;48.774;8.916;2023-11-19T08:46:10;0.65;;;0.40;;
54705;SDS011;40603;48.774;8.916;2023-11-19T08:48:36;0.55;;;0.30;;
54705;SDS011;40603;48.774;8.916;2023-11-19T08:51:01;3.78;;;0.40;;
54705;SDS011;40603;48.774;8.916;2023-11-19T08:53:26;0.90;;;0.47;;
54705;SDS011;40603;48.774;8.916;2023-11-19T08:55:51;0.88;;;0.50;;
54705;SDS011;40603;48.774;8.916;2023-11-19T08:58:17;0.47;;;0.47;;
54705;SDS011;40603;48.774;8.916;2023-11-19T09:00:43;1.50;;;0.47;;
54705;SDS011;40603;48.774;8.916;2023-11-19T09:03:08;1.00;;;0.47;;
54705;SDS011;40603;48.774;8.916;2023-11-19T09:05:34;1.42;;;0.55;;
54705;SDS011;40603;48.774;8.916;2023-11-19T09:07:59;0.70;;;0.43;;
54705;SDS011;40603;48.774;8.916;2023-11-19T09:10:24;1.45;;;0.50;;
54705;SDS011;40603;48.774;8.916;2023-11-19T09:12:51;1.45;;;0.80;;
54705;SDS011;40603;48.774;8.916;2023-11-19T09:15:16;1.38;;;0.40;;
54705;SDS011;40603;48.774;8.916;2023-11-19T09:17:42;1.35;;;0.60;;
54705;SDS011;40603;48.774;8.916;2023-11-19T09:20:07;1.00;;;0.60;;
54705;SDS011;40603;48.774;8.916;2023-11-19T09:22:33;1.92;;;0.55;;
54705;SDS011;40603;48.774;8.916;2023-11-19T09:24:58;0.50;;;0.50;;
54705;SDS011;40603;48.774;8.916;2023-11-19T09:27:25;3.13;;;0.70;;
54705;SDS011;40603;48.774;8.916;2023-11-19T09:29:50;0.82;;;0.65;;
54705;SDS011;40603;48.774;8.916;2023-11-19T09:32:21;1.00;;;0.85;;
54705;SDS011;40603;48.774;8.916;2023-11-19T09:34:47;1.77;;;0.47;;
54705;SDS011;40603;48.774;8.916;2023-11-19T09:37:12;1.17;;;0.57;;
54705;SDS011;40603;48.774;8.916;2023-11-19T09:39:37;0.55;;;0.40;;
54705;SDS011;40603;48.774;8.916;2023-11-19T09:42:03;1.98;;;0.60;;
54705;SDS011;40603;48.774;8.916;2023-11-19T09:44:28;1.83;;;0.82;;
54705;SDS011;40603;48.774;8.916;2023-11-19T09:46:54;1.50;;;0.60;;
54705;SDS011;40603;48.774;8.916;2023-11-19T09:49:21;0.40;;;0.40;;
54705;SDS011;40603;48.774;8.916;2023-11-19T09:51:47;0.85;;;0.43;;
54705;SDS011;40603;48.774;8.916;2023-11-19T09:54:12;2.47;;;0.73;;
54705;SDS011;40603;48.774;8.916;2023-11-19T09:56:38;1.48;;;0.43;;
54705;SDS011;40603;48.774;8.916;2023-11-19T09:59:04;0.45;;;0.45;;
54705;SDS011;40603;48.774;8.916;2023-11-19T10:01:30;1.23;;;0.40;;
54705;SDS011;40603;48.774;8.916;2023-11-19T10:03:56;0.63;;;0.50;;
54705;SDS011;40603;48.774;8.916;2023-11-19T10:06:22;1.33;;;0.70;;
54705;SDS011;40603;48.774;8.916;2023-11-19T10:08:48;1.75;;;0.50;;
54705;SDS011;40603;48.774;8.916;2023-11-19T10:11:13;0.73;;;0.50;;
54705;SDS011;40603;48.774;8.916;2023-11-19T10:13:40;0.70;;;0.50;;
54705;SDS011;40603;48.774;8.916;2023-11-19T10:16:12;1.85;;;0.60;;
54705;SDS011;40603;48.774;8.916;2023-11-19T10:21:06;0.85;;;0.40;;
54705;SDS011;40603;48.774;8.916;2023-11-19T10:23:47;2.25;;;0.52;;
54705;SDS011;40603;48.774;8.916;2023-11-19T10:26:16;3.20;;;0.43;;
54705;SDS011;40603;48.774;8.916;2023-11-19T10:28:43;4.30;;;1.50;;
54705;SDS011;40603;48.774;8.916;2023-11-19T10:31:10;0.70;;;0.30;;
54705;SDS011;40603;48.774;8.916;2023-11-19T10:33:36;1.67;;;0.47;;
54705;SDS011;40603;48.774;8.916;2023-11-19T10:36:02;1.95;;;0.50;;
54705;SDS011;40603;48.774;8.916;2023-11-19T10:38:27;0.55;;;0.45;;
54705;SDS011;40603;48.774;8.916;2023-11-19T10:40:53;0.93;;;0.50;;
54705;SDS011;40603;48.774;8.916;2023-11-19T10:43:19;1.52;;;0.52;;
54705;SDS011;40603;48.774;8.916;2023-11-19T10:45:47;1.05;;;0.43;;
54705;SDS011;40603;48.774;8.916;2023-11-19T10:48:12;3.63;;;0.63;;
54705;SDS011;40603;48.774;8.916;2023-11-19T10:50:38;0.88;;;0.52;;
54705;SDS011;40603;48.774;8.916;2023-11-19T10:53:05;3.20;;;0.75;;
54705;SDS011;40603;48.774;8.916;2023-11-19T10:55:32;2.92;;;0.73;;
54705;SDS011;40603;48.774;8.916;2023-11-19T10:58:01;3.22;;;0.60;;
54705;SDS011;40603;48.774;8.916;2023-11-19T11:00:29;1.00;;;0.68;;
54705;SDS011;40603;48.774;8.916;2023-11-19T11:02:59;0.82;;;0.60;;
54705;SDS011;40603;48.774;8.916;2023-11-19T11:05:26;1.13;;;0.73;;
54705;SDS011;40603;48.774;8.916;2023-11-19T11:07:51;1.08;;;0.80;;
54705;SDS011;40603;48.774;8.916;2023-11-19T11:10:18;0.60;;;0.60;;
54705;SDS011;40603;48.774;8.916;2023-11-19T11:12:44;1.65;;;0.52;;
54705;SDS011;40603;48.774;8.916;2023-11-19T11:15:11;2.53;;;0.73;;
54705;SDS011;40603;48.774;8.916;2023-11-19T11:17:39;3.63;;;0.70;;
54705;SDS011;40603;48.774;8.916;2023-11-19T11:20:07;0.75;;;0.50;;
54705;SDS011;40603;48.774;8.916;2023-11-19T11:22:39;2.63;;;0.90;;
54705;SDS011;40603;48.774;8.916;2023-11-19T11:28:10;2.05;;;0.63;;
54705;SDS011;40603;48.774;8.916;2023-11-19T11:30:55;1.48;;;0.57;;
54705;SDS011;40603;48.774;8.916;2023-11-19T11:36:04;2.35;;;0.70;;
54705;SDS011;40603;48.774;8.916;2023-11-19T11:38:37;3.28;;;0.77;;
54705;SDS011;40603;48.774;8.916;2023-11-19T11:43:49;1.13;;;0.47;;
54705;SDS011;40603;48.774;8.916;2023-11-19T11:49:00;1.35;;;0.60;;
54705;SDS011;40603;48.774;8.916;2023-11-19T11:54:10;1.17;;;0.80;;
54705;SDS011;40603;48.774;8.916;2023-11-19T11:56:37;3.38;;;1.35;;
54705;SDS011;40603;48.774;8.916;2023-11-19T11:59:03;2.72;;;0.45;;
54705;SDS011;40603;48.774;8.916;2023-11-19T12:01:28;2.30;;;0.52;;
54705;SDS011;40603;48.774;8.916;2023-11-19T12:03:55;2.90;;;0.75;;
54705;SDS011;40603;48.774;8.916;2023-11-19T12:06:21;0.93;;;0.52;;
54705;SDS011;40603;48.774;8.916;2023-11-19T12:08:47;0.38;;;0.30;;
54705;SDS011;40603;48.774;8.916;2023-11-19T12:11:12;2.08;;;0.82;;
54705;SDS011;40603;48.774;8.916;2023-11-19T12:13:48;2.30;;;0.68;;
54705;SDS011;40603;48.774;8.916;2023-11-19T12:16:18;1.20;;;1.00;;
54705;SDS011;40603;48.774;8.916;2023-11-19T12:18:44;2.95;;;1.10;;
54705;SDS011;40603;48.774;8.916;2023-11-19T12:21:09;2.88;;;0.80;;
54705;SDS011;40603;48.774;8.916;2023-11-19T12:23:35;1.88;;;0.68;;
54705;SDS011;40603;48.774;8.916;2023-11-19T12:26:08;2.03;;;0.77;;
54705;SDS011;40603;48.774;8.916;2023-11-19T12:28:57;1.38;;;0.40;;
54705;SDS011;40603;48.774;8.916;2023-11-19T12:31:23;1.42;;;0.60;;
54705;SDS011;40603;48.774;8.916;2023-11-19T12:33:50;1.50;;;0.57;;
54705;SDS011;40603;48.774;8.916;2023-11-19T12:36:16;1.25;;;0.50;;
54705;SDS011;40603;48.774;8.916;2023-11-19T12:38:42;1.45;;;0.60;;
54705;SDS011;40603;48.774;8.916;2023-11-19T12:41:10;1.85;;;0.50;;
54705;SDS011;40603;48.774;8.916;2023-11-19T12:43:36;1.58;;;0.50;;
54705;SDS011;40603;48.774;8.916;2023-11-19T12:48:49;2.00;;;0.70;;
54705;SDS011;40603;48.774;8.916;2023-11-19T12:51:15;1.88;;;0.50;;
54705;SDS011;40603;48.774;8.916;2023-11-19T12:53:48;2.35;;;0.47;;
54705;SDS011;40603;48.774;8.916;2023-11-19T12:56:19;0.65;;;0.50;;
54705;SDS011;40603;48.774;8.916;2023-11-19T12:58:45;2.35;;;0.68;;
54705;SDS011;40603;48.774;8.916;2023-11-19T13:01:14;2.72;;;0.52;;
54705;SDS011;40603;48.774;8.916;2023-11-19T13:06:10;1.30;;;0.50;;
54705;SDS011;40603;48.774;8.916;2023-11-19T13:11:05;1.08;;;0.45;;
54705;SDS011;40603;48.774;8.916;2023-11-19T13:13:32;1.17;;;0.68;;
54705;SDS011;40603;48.774;8.916;2023-11-19T13:16:02;1.40;;;0.60;;
54705;SDS011;40603;48.774;8.916;2023-11-19T13:20:54;0.73;;;0.45;;
54705;SDS011;40603;48.774;8.916;2023-11-19T13:23:22;2.20;;;0.47;;
54705;SDS011;40603;48.774;8.916;2023-11-19T13:25:47;5.05;;;0.52;;
54705;SDS011;40603;48.774;8.916;2023-11-19T13:28:12;1.45;;;0.32;;
54705;SDS011;40603;48.774;8.916;2023-11-19T13:30:38;2.08;;;0.60;;
54705;SDS011;40603;48.774;8.916;2023-11-19T13:33:03;0.93;;;0.50;;
54705;SDS011;40603;48.774;8.916;2023-11-19T13:35:28;2.28;;;0.52;;
54705;SDS011;40603;48.774;8.916;2023-11-19T13:37:54;0.40;;;0.35;;
54705;SDS011;40603;48.774;8.916;2023-11-19T13:40:19;1.70;;;0.50;;
54705;SDS011;40603;48.774;8.916;2023-11-19T13:42:47;1.08;;;0.52;;
54705;SDS011;40603;48.774;8.916;2023-11-19T13:45:13;1.30;;;0.52;;
54705;SDS011;40603;48.774;8.916;2023-11-19T13:47:39;2.53;;;0.52;;
54705;SDS011;40603;48.774;8.916;2023-11-19T13:50:06;1.25;;;1.15;;
54705;SDS011;40603;48.774;8.916;2023-11-19T13:52:33;2.95;;;1.15;;
54705;SDS011;40603;48.774;8.916;2023-11-19T13:54:58;2.20;;;0.75;;
54705;SDS011;40603;48.774;8.916;2023-11-19T13:57:23;1.23;;;0.70;;
54705;SDS011;40603;48.774;8.916;2023-11-19T13:59:49;0.90;;;0.50;;
54705;SDS011;40603;48.774;8.916;2023-11-19T14:02:14;0.75;;;0.50;;
54705;SDS011;40603;48.774;8.916;2023-11-19T14:04:39;1.45;;;0.50;;
54705;SDS011;40603;48.774;8.916;2023-11-19T14:07:05;0.95;;;0.60;;
54705;SDS011;40603;48.774;8.916;2023-11-19T14:09:30;1.35;;;0.63;;
54705;SDS011;40603;48.774;8.916;2023-11-19T14:11:55;0.43;;;0.38;;
54705;SDS011;40603;48.774;8.916;2023-11-19T14:14:20;2.05;;;0.80;;
54705;SDS011;40603;48.774;8.916;2023-11-19T14:16:46;1.17;;;0.60;;
54705;SDS011;40603;48.774;8.916;2023-11-19T14:19:11;2.50;;;1.10;;
54705;SDS011;40603;48.774;8.916;2023-11-19T14:21:36;1.83;;;0.90;;
54705;SDS011;40603;48.774;8.916;2023-11-19T14:24:02;3.13;;;0.90;;
54705;SDS011;40603;48.774;8.916;2023-11-19T14:26:28;3.22;;;0.80;;
54705;SDS011;40603;48.774;8.916;2023-11-19T14:28:53;1.65;;;0.70;;
54705;SDS011;40603;48.774;8.916;2023-11-19T14:31:18;0.50;;;0.50;;
54705;SDS011;40603;48.774;8.916;2023-11-19T14:33:43;2.25;;;0.50;;
54705;SDS011;40603;48.774;8.916;2023-11-19T14:36:09;1.23;;;0.65;;
54705;SDS011;40603;48.774;8.916;2023-11-19T14:38:35;3.35;;;0.63;;
54705;SDS011;40603;48.774;8.916;2023-11-19T14:41:00;4.03;;;0.63;;
54705;SDS011;40603;48.774;8.916;2023-11-19T14:43:25;1.92;;;0.68;;
54705;SDS011;40603;48.774;8.916;2023-11-19T14:45:51;0.98;;;0.70;;
54705;SDS011;40603;48.774;8.916;2023-11-19T14:48:16;0.45;;;0.40;;
54705;SDS011;40603;48.774;8.916;2023-11-19T14:50:45;1.10;;;0.50;;
54705;SDS011;40603;48.774;8.916;2023-11-19T14:53:11;0.63;;;0.50;;
54705;SDS011;40603;48.774;8.916;2023-11-19T14:55:36;2.05;;;0.60;;
54705;SDS011;40603;48.774;8.916;2023-11-19T14:58:01;1.70;;;0.50;;
54705;SDS011;40603;48.774;8.916;2023-11-19T15:00:27;1.80;;;0.73;;
54705;SDS011;40603;48.774;8.916;2023-11-19T15:02:52;1.25;;;0.50;;
54705;SDS011;40603;48.774;8.916;2023-11-19T15:05:17;1.75;;;0.47;;
54705;SDS011;40603;48.774;8.916;2023-11-19T15:07:43;1.77;;;0.47;;